sensor_id;sensor_type;location;lat;lon;timestamp;temperature;humidity
19330;DHT22;9799;48.214;16.388;2023-01-04T00:02:17;8.80;99.90
19330;DHT22;9799;48.214;16.388;2023-01-04T00:05:40;8.80;99.90
19330;DHT22;9799;48.214;16.388;2023-01-04T00:09:01;8.70;99.90
19330;DHT22;9799;48.214;16.388;2023-01-04T00:12:22;8.60;99.90
19330;DHT22;9799;48.214;16.388;2023-01-04T00:15:43;8.60;99.90
19330;DHT22;9799;48.214;16.388;2023-01-04T00:19:05;8.60;99.90
19330;DHT22;9799;48.214;16.388;2023-01-04T00:22:27;8.60;99.90
19330;DHT22;9799;48.214;16.388;2023-01-04T00:25:48;8.70;99.90
19330;DHT22;9799;48.214;16.388;2023-01-04T00:29:11;8.60;99.90
19330;DHT22;9799;48.214;16.388;2023-01-04T00:32:33;8.50;99.90
19330;DHT22;9799;48.214;16.388;2023-01-04T00:35:54;8.30;99.90
19330;DHT22;9799;48.214;16.388;2023-01-04T00:39:16;8.40;99.90
19330;DHT22;9799;48.214;16.388;2023-01-04T00:42:38;8.50;99.90
19330;DHT22;9799;48.214;16.388;2023-01-04T00:45:59;8.50;99.90
19330;DHT22;9799;48.214;16.388;2023-01-04T00:49:21;8.50;99.90
19330;DHT22;9799;48.214;16.388;2023-01-04T00:52:42;8.40;99.90
19330;DHT22;9799;48.214;16.388;2023-01-04T00:56:05;8.40;99.90
19330;DHT22;9799;48.214;16.388;2023-01-04T00:59:27;8.30;99.90
19330;DHT22;9799;48.214;16.388;2023-01-04T01:02:48;8.20;99.90
19330;DHT22;9799;48.214;16.388;2023-01-04T01:06:09;8.10;99.90
19330;DHT22;9799;48.214;16.388;2023-01-04T01:09:31;8.00;99.90
19330;DHT22;9799;48.214;16.388;2023-01-04T01:12:53;7.90;99.90
19330;DHT22;9799;48.214;16.388;2023-01-04T01:16:17;8.00;99.90
19330;DHT22;9799;48.214;16.388;2023-01-04T01:19:38;8.00;99.90
19330;DHT22;9799;48.214;16.388;2023-01-04T01:23:00;7.80;99.90
19330;DHT22;9799;48.214;16.388;2023-01-04T01:26:23;7.80;99.90
19330;DHT22;9799;48.214;16.388;2023-01-04T01:29:46;7.90;99.90
19330;DHT22;9799;48.214;16.388;2023-01-04T01:33:07;7.90;99.90
19330;DHT22;9799;48.214;16.388;2023-01-04T01:36:28;7.80;99.90
19330;DHT22;9799;48.214;16.388;2023-01-04T01:39:49;7.80;99.90
19330;DHT22;9799;48.214;16.388;2023-01-04T01:43:16;7.80;99.90
19330;DHT22;9799;48.214;16.388;2023-01-04T01:46:41;7.90;99.90
19330;DHT22;9799;48.214;16.388;2023-01-04T01:50:05;7.90;99.90
19330;DHT22;9799;48.214;16.388;2023-01-04T01:53:33;7.90;99.90
19330;DHT22;9799;48.214;16.388;2023-01-04T01:56:58;7.90;99.90
19330;DHT22;9799;48.214;16.388;2023-01-04T02:00:20;7.90;99.90
19330;DHT22;9799;48.214;16.388;2023-01-04T02:03:42;7.90;99.90
19330;DHT22;9799;48.214;16.388;2023-01-04T02:07:04;7.90;99.90
19330;DHT22;9799;48.214;16.388;2023-01-04T02:10:26;7.90;99.90
19330;DHT22;9799;48.214;16.388;2023-01-04T02:13:47;7.90;99.90
19330;DHT22;9799;48.214;16.388;2023-01-04T02:17:33;7.90;99.90
19330;DHT22;9799;48.214;16.388;2023-01-04T02:21:00;7.90;99.90
19330;DHT22;9799;48.214;16.388;2023-01-04T02:24:32;7.90;99.90
19330;DHT22;9799;48.214;16.388;2023-01-04T02:28:00;7.90;99.90
19330;DHT22;9799;48.214;16.388;2023-01-04T02:31:27;7.80;99.90
19330;DHT22;9799;48.214;16.388;2023-01-04T02:34:58;7.80;99.90
19330;DHT22;9799;48.214;16.388;2023-01-04T02:38:24;7.70;99.90
19330;DHT22;9799;48.214;16.388;2023-01-04T02:41:50;7.70;99.90
19330;DHT22;9799;48.214;16.388;2023-01-04T02:45:14;7.70;99.90
19330;DHT22;9799;48.214;16.388;2023-01-04T02:48:39;7.70;99.90
19330;DHT22;9799;48.214;16.388;2023-01-04T02:52:18;7.60;99.90
19330;DHT22;9799;48.214;16.388;2023-01-04T02:55:46;7.40;99.90
19330;DHT22;9799;48.214;16.388;2023-01-04T02:59:19;7.20;99.90
19330;DHT22;9799;48.214;16.388;2023-01-04T03:03:04;7.10;99.90
19330;DHT22;9799;48.214;16.388;2023-01-04T03:06:51;7.00;99.90
19330;DHT22;9799;48.214;16.388;2023-01-04T03:10:25;7.00;99.90
19330;DHT22;9799;48.214;16.388;2023-01-04T03:13:48;7.20;99.90
19330;DHT22;9799;48.214;16.388;2023-01-04T03:17:12;7.30;99.90
19330;DHT22;9799;48.214;16.388;2023-01-04T03:20:33;7.40;99.90
19330;DHT22;9799;48.214;16.388;2023-01-04T03:23:58;7.50;99.90
19330;DHT22;9799;48.214;16.388;2023-01-04T03:27:37;7.50;99.90
19330;DHT22;9799;48.214;16.388;2023-01-04T03:31:20;7.60;99.90
19330;DHT22;9799;48.214;16.388;2023-01-04T03:34:59;7.60;99.90
19330;DHT22;9799;48.214;16.388;2023-01-04T03:38:44;7.50;99.90
19330;DHT22;9799;48.214;16.388;2023-01-04T03:42:28;7.50;99.90
19330;DHT22;9799;48.214;16.388;2023-01-04T03:46:13;7.50;99.90
19330;DHT22;9799;48.214;16.388;2023-01-04T03:49:57;7.50;99.90
19330;DHT22;9799;48.214;16.388;2023-01-04T03:53:20;7.50;99.90
19330;DHT22;9799;48.214;16.388;2023-01-04T03:56:44;7.50;99.90
19330;DHT22;9799;48.214;16.388;2023-01-04T04:00:10;7.50;99.90
19330;DHT22;9799;48.214;16.388;2023-01-04T04:03:31;7.50;99.90
19330;DHT22;9799;48.214;16.388;2023-01-04T04:07:10;7.40;99.90
19330;DHT22;9799;48.214;16.388;2023-01-04T04:10:49;7.30;99.90
19330;DHT22;9799;48.214;16.388;2023-01-04T04:14:10;7.30;99.90
19330;DHT22;9799;48.214;16.388;2023-01-04T04:17:33;7.30;99.90
19330;DHT22;9799;48.214;16.388;2023-01-04T04:20:56;7.30;99.90
19330;DHT22;9799;48.214;16.388;2023-01-04T04:24:19;7.30;99.90
19330;DHT22;9799;48.214;16.388;2023-01-04T04:27:40;7.30;99.90
19330;DHT22;9799;48.214;16.388;2023-01-04T04:31:02;7.40;99.90
19330;DHT22;9799;48.214;16.388;2023-01-04T04:34:24;7.40;99.90
19330;DHT22;9799;48.214;16.388;2023-01-04T04:37:46;7.30;99.90
19330;DHT22;9799;48.214;16.388;2023-01-04T04:41:08;7.30;99.90
19330;DHT22;9799;48.214;16.388;2023-01-04T04:44:47;7.30;99.90
19330;DHT22;9799;48.214;16.388;2023-01-04T04:48:08;7.20;99.90
19330;DHT22;9799;48.214;16.388;2023-01-04T04:51:31;6.70;99.90
19330;DHT22;9799;48.214;16.388;2023-01-04T04:54:52;6.30;99.90
19330;DHT22;9799;48.214;16.388;2023-01-04T04:58:13;6.20;99.90
19330;DHT22;9799;48.214;16.388;2023-01-04T05:01:34;6.10;99.90
19330;DHT22;9799;48.214;16.388;2023-01-04T05:04:56;6.10;99.90
19330;DHT22;9799;48.214;16.388;2023-01-04T05:08:18;5.90;99.90
19330;DHT22;9799;48.214;16.388;2023-01-04T05:11:40;5.80;99.90
19330;DHT22;9799;48.214;16.388;2023-01-04T05:15:18;5.80;99.90
19330;DHT22;9799;48.214;16.388;2023-01-04T05:18:39;5.80;99.90
19330;DHT22;9799;48.214;16.388;2023-01-04T05:22:00;5.80;99.90
19330;DHT22;9799;48.214;16.388;2023-01-04T05:25:23;5.70;99.90
19330;DHT22;9799;48.214;16.388;2023-01-04T05:28:45;5.70;99.90
19330;DHT22;9799;48.214;16.388;2023-01-04T05:32:06;5.60;99.90
19330;DHT22;9799;48.214;16.388;2023-01-04T05:35:27;5.60;99.90
19330;DHT22;9799;48.214;16.388;2023-01-04T05:38:48;5.70;99.90
19330;DHT22;9799;48.214;16.388;2023-01-04T05:42:10;5.70;99.90
19330;DHT22;9799;48.214;16.388;2023-01-04T05:45:48;5.70;99.90
19330;DHT22;9799;48.214;16.388;2023-01-04T05:49:09;5.50;99.90
19330;DHT22;9799;48.214;16.388;2023-01-04T05:52:30;5.50;99.90
19330;DHT22;9799;48.214;16.388;2023-01-04T05:55:51;5.60;99.90
19330;DHT22;9799;48.214;16.388;2023-01-04T05:59:14;5.60;99.90
19330;DHT22;9799;48.214;16.388;2023-01-04T06:02:35;5.50;99.90
19330;DHT22;9799;48.214;16.388;2023-01-04T06:05:57;5.40;99.90
19330;DHT22;9799;48.214;16.388;2023-01-04T06:09:18;5.30;99.90
19330;DHT22;9799;48.214;16.388;2023-01-04T06:12:40;5.30;99.90
19330;DHT22;9799;48.214;16.388;2023-01-04T06:16:03;5.50;99.90
19330;DHT22;9799;48.214;16.388;2023-01-04T06:19:24;5.70;99.90
19330;DHT22;9799;48.214;16.388;2023-01-04T06:22:45;5.80;99.90
19330;DHT22;9799;48.214;16.388;2023-01-04T06:26:06;5.70;99.90
19330;DHT22;9799;48.214;16.388;2023-01-04T06:29:27;5.80;99.90
19330;DHT22;9799;48.214;16.388;2023-01-04T06:32:50;5.80;99.90
19330;DHT22;9799;48.214;16.388;2023-01-04T06:36:11;5.80;99.90
19330;DHT22;9799;48.214;16.388;2023-01-04T06:39:33;6.00;99.90
19330;DHT22;9799;48.214;16.388;2023-01-04T06:42:54;6.00;99.90
19330;DHT22;9799;48.214;16.388;2023-01-04T06:46:15;5.70;99.90
19330;DHT22;9799;48.214;16.388;2023-01-04T06:49:38;5.40;99.90
19330;DHT22;9799;48.214;16.388;2023-01-04T06:52:59;5.20;99.90
19330;DHT22;9799;48.214;16.388;2023-01-04T06:56:20;5.20;99.90
19330;DHT22;9799;48.214;16.388;2023-01-04T06:59:42;5.20;99.90
19330;DHT22;9799;48.214;16.388;2023-01-04T07:03:03;5.20;99.90
19330;DHT22;9799;48.214;16.388;2023-01-04T07:06:25;5.20;99.90
19330;DHT22;9799;48.214;16.388;2023-01-04T07:09:46;5.20;99.90
19330;DHT22;9799;48.214;16.388;2023-01-04T07:13:08;5.20;99.90
19330;DHT22;9799;48.214;16.388;2023-01-04T07:16:29;5.20;99.90
19330;DHT22;9799;48.214;16.388;2023-01-04T07:19:51;5.10;99.90
19330;DHT22;9799;48.214;16.388;2023-01-04T07:23:13;5.10;99.90
19330;DHT22;9799;48.214;16.388;2023-01-04T07:26:35;5.10;99.90
19330;DHT22;9799;48.214;16.388;2023-01-04T07:29:56;5.10;99.90
19330;DHT22;9799;48.214;16.388;2023-01-04T07:33:17;5.20;99.90
19330;DHT22;9799;48.214;16.388;2023-01-04T07:36:39;5.10;99.90
19330;DHT22;9799;48.214;16.388;2023-01-04T07:40:01;5.00;99.90
19330;DHT22;9799;48.214;16.388;2023-01-04T07:43:23;4.90;99.90
19330;DHT22;9799;48.214;16.388;2023-01-04T07:46:44;4.70;99.90
19330;DHT22;9799;48.214;16.388;2023-01-04T07:50:06;4.70;99.90
19330;DHT22;9799;48.214;16.388;2023-01-04T07:53:27;4.60;99.90
19330;DHT22;9799;48.214;16.388;2023-01-04T07:56:50;4.50;99.90
19330;DHT22;9799;48.214;16.388;2023-01-04T08:00:12;4.50;99.90
19330;DHT22;9799;48.214;16.388;2023-01-04T08:03:33;4.50;99.90
19330;DHT22;9799;48.214;16.388;2023-01-04T08:06:54;4.50;99.90
19330;DHT22;9799;48.214;16.388;2023-01-04T08:10:16;4.40;99.90
19330;DHT22;9799;48.214;16.388;2023-01-04T08:13:38;4.30;99.90
19330;DHT22;9799;48.214;16.388;2023-01-04T08:16:59;4.30;99.90
19330;DHT22;9799;48.214;16.388;2023-01-04T08:20:21;4.20;99.90
19330;DHT22;9799;48.214;16.388;2023-01-04T08:23:42;4.20;99.90
19330;DHT22;9799;48.214;16.388;2023-01-04T08:27:03;4.20;99.90
19330;DHT22;9799;48.214;16.388;2023-01-04T08:30:26;4.20;99.90
19330;DHT22;9799;48.214;16.388;2023-01-04T08:33:50;4.40;99.90
19330;DHT22;9799;48.214;16.388;2023-01-04T08:37:12;4.40;99.90
19330;DHT22;9799;48.214;16.388;2023-01-04T08:40:33;4.50;99.90
19330;DHT22;9799;48.214;16.388;2023-01-04T08:43:54;4.50;99.90
19330;DHT22;9799;48.214;16.388;2023-01-04T08:47:17;4.60;99.90
19330;DHT22;9799;48.214;16.388;2023-01-04T08:50:38;4.70;99.90
19330;DHT22;9799;48.214;16.388;2023-01-04T08:53:59;4.70;99.90
19330;DHT22;9799;48.214;16.388;2023-01-04T08:57:21;4.70;99.90
19330;DHT22;9799;48.214;16.388;2023-01-04T09:00:42;4.80;99.90
19330;DHT22;9799;48.214;16.388;2023-01-04T09:04:05;4.80;99.90
19330;DHT22;9799;48.214;16.388;2023-01-04T09:07:28;5.00;99.90
19330;DHT22;9799;48.214;16.388;2023-01-04T09:10:49;5.10;99.90
19330;DHT22;9799;48.214;16.388;2023-01-04T09:14:10;5.20;99.90
19330;DHT22;9799;48.214;16.388;2023-01-04T09:17:33;5.30;99.90
19330;DHT22;9799;48.214;16.388;2023-01-04T09:20:56;5.40;99.90
19330;DHT22;9799;48.214;16.388;2023-01-04T09:24:17;5.40;99.90
19330;DHT22;9799;48.214;16.388;2023-01-04T09:27:38;5.40;99.90
19330;DHT22;9799;48.214;16.388;2023-01-04T09:31:04;5.50;99.90
19330;DHT22;9799;48.214;16.388;2023-01-04T09:34:25;5.50;99.90
19330;DHT22;9799;48.214;16.388;2023-01-04T09:37:48;5.70;99.90
19330;DHT22;9799;48.214;16.388;2023-01-04T09:41:17;5.70;99.90
19330;DHT22;9799;48.214;16.388;2023-01-04T09:44:43;5.80;99.90
19330;DHT22;9799;48.214;16.388;2023-01-04T09:48:09;5.90;99.90
19330;DHT22;9799;48.214;16.388;2023-01-04T09:51:34;5.90;99.90
19330;DHT22;9799;48.214;16.388;2023-01-04T09:54:59;5.90;99.90
19330;DHT22;9799;48.214;16.388;2023-01-04T09:58:26;6.00;99.90
19330;DHT22;9799;48.214;16.388;2023-01-04T10:01:52;6.30;99.90
19330;DHT22;9799;48.214;16.388;2023-01-04T10:05:17;6.40;99.90
19330;DHT22;9799;48.214;16.388;2023-01-04T10:08:40;6.50;99.90
19330;DHT22;9799;48.214;16.388;2023-01-04T10:12:15;6.50;99.90
19330;DHT22;9799;48.214;16.388;2023-01-04T10:15:47;6.50;99.90
19330;DHT22;9799;48.214;16.388;2023-01-04T10:19:19;6.60;99.90
19330;DHT22;9799;48.214;16.388;2023-01-04T10:22:48;6.70;99.90
19330;DHT22;9799;48.214;16.388;2023-01-04T10:26:12;6.70;99.90
19330;DHT22;9799;48.214;16.388;2023-01-04T10:29:40;6.60;99.90
19330;DHT22;9799;48.214;16.388;2023-01-04T10:33:10;6.60;99.90
19330;DHT22;9799;48.214;16.388;2023-01-04T10:36:32;6.50;99.90
19330;DHT22;9799;48.214;16.388;2023-01-04T10:39:54;6.70;99.90
19330;DHT22;9799;48.214;16.388;2023-01-04T10:43:23;6.80;99.90
19330;DHT22;9799;48.214;16.388;2023-01-04T10:46:55;6.80;99.90
19330;DHT22;9799;48.214;16.388;2023-01-04T10:50:23;6.80;99.90
19330;DHT22;9799;48.214;16.388;2023-01-04T10:53:50;6.80;99.90
19330;DHT22;9799;48.214;16.388;2023-01-04T10:57:20;6.80;99.90
19330;DHT22;9799;48.214;16.388;2023-01-04T11:00:47;6.90;99.90
19330;DHT22;9799;48.214;16.388;2023-01-04T11:04:16;6.80;99.90
19330;DHT22;9799;48.214;16.388;2023-01-04T11:07:45;6.70;99.90
19330;DHT22;9799;48.214;16.388;2023-01-04T11:11:10;6.50;99.90
19330;DHT22;9799;48.214;16.388;2023-01-04T11:14:32;6.60;99.90
19330;DHT22;9799;48.214;16.388;2023-01-04T11:17:53;6.70;99.90
19330;DHT22;9799;48.214;16.388;2023-01-04T11:21:17;6.50;99.90
19330;DHT22;9799;48.214;16.388;2023-01-04T11:24:41;6.60;99.90
19330;DHT22;9799;48.214;16.388;2023-01-04T11:28:10;6.70;99.90
19330;DHT22;9799;48.214;16.388;2023-01-04T11:31:43;6.70;99.90
19330;DHT22;9799;48.214;16.388;2023-01-04T11:35:05;6.70;99.90
19330;DHT22;9799;48.214;16.388;2023-01-04T11:38:29;6.60;99.90
19330;DHT22;9799;48.214;16.388;2023-01-04T11:41:54;6.60;99.90
19330;DHT22;9799;48.214;16.388;2023-01-04T11:45:19;6.80;99.90
19330;DHT22;9799;48.214;16.388;2023-01-04T11:48:42;6.80;99.90
19330;DHT22;9799;48.214;16.388;2023-01-04T11:52:04;6.90;99.90
19330;DHT22;9799;48.214;16.388;2023-01-04T11:55:30;6.90;99.90
19330;DHT22;9799;48.214;16.388;2023-01-04T11:59:13;7.00;99.90
19330;DHT22;9799;48.214;16.388;2023-01-04T12:02:34;6.90;99.90
19330;DHT22;9799;48.214;16.388;2023-01-04T12:05:56;6.90;99.90
19330;DHT22;9799;48.214;16.388;2023-01-04T12:09:19;6.70;99.90
19330;DHT22;9799;48.214;16.388;2023-01-04T12:12:42;6.80;99.90
19330;DHT22;9799;48.214;16.388;2023-01-04T12:16:11;6.90;99.90
19330;DHT22;9799;48.214;16.388;2023-01-04T12:19:40;6.80;99.90
19330;DHT22;9799;48.214;16.388;2023-01-04T12:23:02;6.90;99.90
19330;DHT22;9799;48.214;16.388;2023-01-04T12:26:23;7.10;99.90
19330;DHT22;9799;48.214;16.388;2023-01-04T12:29:54;7.20;99.90
19330;DHT22;9799;48.214;16.388;2023-01-04T12:33:37;7.30;99.90
19330;DHT22;9799;48.214;16.388;2023-01-04T12:37:00;7.40;99.90
19330;DHT22;9799;48.214;16.388;2023-01-04T12:40:53;7.50;99.90
19330;DHT22;9799;48.214;16.388;2023-01-04T12:48:32;7.60;99.90
19330;DHT22;9799;48.214;16.388;2023-01-04T12:52:34;7.60;99.90
19330;DHT22;9799;48.214;16.388;2023-01-04T12:55:55;7.70;99.90
19330;DHT22;9799;48.214;16.388;2023-01-04T12:59:31;7.70;99.90
19330;DHT22;9799;48.214;16.388;2023-01-04T13:03:34;7.80;99.90
19330;DHT22;9799;48.214;16.388;2023-01-04T13:07:07;7.80;99.90
19330;DHT22;9799;48.214;16.388;2023-01-04T13:10:33;7.90;99.90
19330;DHT22;9799;48.214;16.388;2023-01-04T13:13:58;7.80;99.90
19330;DHT22;9799;48.214;16.388;2023-01-04T13:17:24;7.80;99.90
19330;DHT22;9799;48.214;16.388;2023-01-04T13:20:47;8.00;99.90
19330;DHT22;9799;48.214;16.388;2023-01-04T13:24:19;8.00;99.90
19330;DHT22;9799;48.214;16.388;2023-01-04T13:27:54;8.00;99.90
19330;DHT22;9799;48.214;16.388;2023-01-04T13:31:16;8.00;99.90
19330;DHT22;9799;48.214;16.388;2023-01-04T13:34:38;8.10;99.90
19330;DHT22;9799;48.214;16.388;2023-01-04T13:38:01;8.10;99.90
19330;DHT22;9799;48.214;16.388;2023-01-04T13:41:22;8.20;99.90
19330;DHT22;9799;48.214;16.388;2023-01-04T13:45:00;8.20;99.90
19330;DHT22;9799;48.214;16.388;2023-01-04T13:48:25;8.20;99.90
19330;DHT22;9799;48.214;16.388;2023-01-04T13:51:50;8.20;99.90
19330;DHT22;9799;48.214;16.388;2023-01-04T13:55:19;8.30;99.90
19330;DHT22;9799;48.214;16.388;2023-01-04T13:58:42;8.30;99.90
19330;DHT22;9799;48.214;16.388;2023-01-04T14:02:13;8.30;99.90
19330;DHT22;9799;48.214;16.388;2023-01-04T14:05:35;8.40;99.90
19330;DHT22;9799;48.214;16.388;2023-01-04T14:09:03;8.40;99.90
19330;DHT22;9799;48.214;16.388;2023-01-04T14:12:28;8.40;99.90
19330;DHT22;9799;48.214;16.388;2023-01-04T14:16:03;8.50;99.90
19330;DHT22;9799;48.214;16.388;2023-01-04T14:19:47;8.50;99.90
19330;DHT22;9799;48.214;16.388;2023-01-04T14:23:24;8.50;99.90
19330;DHT22;9799;48.214;16.388;2023-01-04T14:26:46;8.50;99.90
19330;DHT22;9799;48.214;16.388;2023-01-04T14:30:22;8.50;99.90
19330;DHT22;9799;48.214;16.388;2023-01-04T14:33:44;8.50;99.90
19330;DHT22;9799;48.214;16.388;2023-01-04T14:37:07;8.60;99.90
19330;DHT22;9799;48.214;16.388;2023-01-04T14:40:29;8.70;99.90
19330;DHT22;9799;48.214;16.388;2023-01-04T14:43:52;8.60;99.90
19330;DHT22;9799;48.214;16.388;2023-01-04T14:47:23;8.60;99.90
19330;DHT22;9799;48.214;16.388;2023-01-04T14:50:44;8.60;99.90
19330;DHT22;9799;48.214;16.388;2023-01-04T14:54:06;8.60;99.90
19330;DHT22;9799;48.214;16.388;2023-01-04T14:57:28;8.60;99.90
19330;DHT22;9799;48.214;16.388;2023-01-04T15:00:49;8.60;99.90
19330;DHT22;9799;48.214;16.388;2023-01-04T15:04:12;8.50;99.90
19330;DHT22;9799;48.214;16.388;2023-01-04T15:07:34;8.40;99.90
19330;DHT22;9799;48.214;16.388;2023-01-04T15:10:56;8.50;99.90
19330;DHT22;9799;48.214;16.388;2023-01-04T15:14:18;8.50;99.90
19330;DHT22;9799;48.214;16.388;2023-01-04T15:17:39;8.50;99.90
19330;DHT22;9799;48.214;16.388;2023-01-04T15:21:03;8.50;99.90
19330;DHT22;9799;48.214;16.388;2023-01-04T15:24:24;8.60;99.90
19330;DHT22;9799;48.214;16.388;2023-01-04T15:27:45;8.50;99.90
19330;DHT22;9799;48.214;16.388;2023-01-04T15:31:07;8.60;99.90
19330;DHT22;9799;48.214;16.388;2023-01-04T15:34:29;8.60;99.90
19330;DHT22;9799;48.214;16.388;2023-01-04T15:37:51;8.60;99.90
19330;DHT22;9799;48.214;16.388;2023-01-04T15:41:15;8.60;99.90
19330;DHT22;9799;48.214;16.388;2023-01-04T15:44:56;8.60;99.90
19330;DHT22;9799;48.214;16.388;2023-01-04T15:48:17;8.60;99.90
19330;DHT22;9799;48.214;16.388;2023-01-04T15:51:38;8.50;99.90
19330;DHT22;9799;48.214;16.388;2023-01-04T15:55:01;8.60;99.90
19330;DHT22;9799;48.214;16.388;2023-01-04T15:58:22;8.60;99.90
19330;DHT22;9799;48.214;16.388;2023-01-04T16:01:44;8.60;99.90
19330;DHT22;9799;48.214;16.388;2023-01-04T16:05:06;8.60;99.90
19330;DHT22;9799;48.214;16.388;2023-01-04T16:08:28;8.60;99.90
19330;DHT22;9799;48.214;16.388;2023-01-04T16:11:52;8.60;99.90
19330;DHT22;9799;48.214;16.388;2023-01-04T16:15:31;8.60;99.90
19330;DHT22;9799;48.214;16.388;2023-01-04T16:18:54;8.70;99.90
19330;DHT22;9799;48.214;16.388;2023-01-04T16:22:16;8.70;99.90
19330;DHT22;9799;48.214;16.388;2023-01-04T16:25:37;8.60;99.90
19330;DHT22;9799;48.214;16.388;2023-01-04T16:29:00;8.60;99.90
19330;DHT22;9799;48.214;16.388;2023-01-04T16:32:21;8.60;99.90
19330;DHT22;9799;48.214;16.388;2023-01-04T16:35:42;8.60;99.90
19330;DHT22;9799;48.214;16.388;2023-01-04T16:39:04;8.60;99.90
19330;DHT22;9799;48.214;16.388;2023-01-04T16:42:25;8.60;99.90
19330;DHT22;9799;48.214;16.388;2023-01-04T16:45:48;8.60;99.90
19330;DHT22;9799;48.214;16.388;2023-01-04T16:49:10;8.60;99.90
19330;DHT22;9799;48.214;16.388;2023-01-04T16:52:32;8.60;99.90
19330;DHT22;9799;48.214;16.388;2023-01-04T16:55:53;8.60;99.90
19330;DHT22;9799;48.214;16.388;2023-01-04T16:59:17;8.50;99.90
19330;DHT22;9799;48.214;16.388;2023-01-04T17:02:40;8.50;99.90
19330;DHT22;9799;48.214;16.388;2023-01-04T17:06:05;8.60;99.90
19330;DHT22;9799;48.214;16.388;2023-01-04T17:09:26;8.60;99.90
19330;DHT22;9799;48.214;16.388;2023-01-04T17:12:48;8.60;99.90
19330;DHT22;9799;48.214;16.388;2023-01-04T17:16:10;8.70;99.90
19330;DHT22;9799;48.214;16.388;2023-01-04T17:19:33;8.70;99.90
19330;DHT22;9799;48.214;16.388;2023-01-04T17:22:55;8.70;99.90
19330;DHT22;9799;48.214;16.388;2023-01-04T17:26:18;8.70;99.90
19330;DHT22;9799;48.214;16.388;2023-01-04T17:29:40;8.70;99.90
19330;DHT22;9799;48.214;16.388;2023-01-04T17:33:02;8.70;99.90
19330;DHT22;9799;48.214;16.388;2023-01-04T17:36:25;8.70;99.90
19330;DHT22;9799;48.214;16.388;2023-01-04T17:39:47;8.70;99.90
19330;DHT22;9799;48.214;16.388;2023-01-04T17:43:09;8.80;99.90
19330;DHT22;9799;48.214;16.388;2023-01-04T17:46:31;8.80;99.90
19330;DHT22;9799;48.214;16.388;2023-01-04T17:49:53;8.80;99.90
19330;DHT22;9799;48.214;16.388;2023-01-04T17:53:17;8.80;99.90
19330;DHT22;9799;48.214;16.388;2023-01-04T17:56:38;8.90;99.90
19330;DHT22;9799;48.214;16.388;2023-01-04T18:00:00;8.90;99.90
19330;DHT22;9799;48.214;16.388;2023-01-04T18:03:22;8.90;99.90
19330;DHT22;9799;48.214;16.388;2023-01-04T18:06:44;8.90;99.90
19330;DHT22;9799;48.214;16.388;2023-01-04T18:10:08;8.90;99.90
19330;DHT22;9799;48.214;16.388;2023-01-04T18:13:35;9.20;99.90
19330;DHT22;9799;48.214;16.388;2023-01-04T18:16:58;9.30;99.90
19330;DHT22;9799;48.214;16.388;2023-01-04T18:20:20;9.30;99.90
19330;DHT22;9799;48.214;16.388;2023-01-04T18:23:41;9.20;99.90
19330;DHT22;9799;48.214;16.388;2023-01-04T18:27:05;9.10;99.90
19330;DHT22;9799;48.214;16.388;2023-01-04T18:30:28;9.10;99.90
19330;DHT22;9799;48.214;16.388;2023-01-04T18:33:51;9.10;99.90
19330;DHT22;9799;48.214;16.388;2023-01-04T18:37:16;9.10;99.90
19330;DHT22;9799;48.214;16.388;2023-01-04T18:40:39;9.10;99.90
19330;DHT22;9799;48.214;16.388;2023-01-04T18:44:02;9.10;99.90
19330;DHT22;9799;48.214;16.388;2023-01-04T18:47:24;9.10;99.90
19330;DHT22;9799;48.214;16.388;2023-01-04T18:50:47;9.20;99.90
19330;DHT22;9799;48.214;16.388;2023-01-04T18:54:08;9.20;99.90
19330;DHT22;9799;48.214;16.388;2023-01-04T18:57:30;9.10;99.90
19330;DHT22;9799;48.214;16.388;2023-01-04T19:01:03;9.00;99.90
19330;DHT22;9799;48.214;16.388;2023-01-04T19:04:25;9.10;99.90
19330;DHT22;9799;48.214;16.388;2023-01-04T19:07:48;9.10;99.90
19330;DHT22;9799;48.214;16.388;2023-01-04T19:11:12;9.00;99.90
19330;DHT22;9799;48.214;16.388;2023-01-04T19:14:35;9.10;99.90
19330;DHT22;9799;48.214;16.388;2023-01-04T19:17:59;9.20;99.90
19330;DHT22;9799;48.214;16.388;2023-01-04T19:21:27;9.60;99.90
19330;DHT22;9799;48.214;16.388;2023-01-04T19:24:51;9.70;99.90
19330;DHT22;9799;48.214;16.388;2023-01-04T19:28:15;9.70;99.90
19330;DHT22;9799;48.214;16.388;2023-01-04T19:31:39;9.70;99.90
19330;DHT22;9799;48.214;16.388;2023-01-04T19:35:03;9.70;99.90
19330;DHT22;9799;48.214;16.388;2023-01-04T19:38:24;9.70;99.90
19330;DHT22;9799;48.214;16.388;2023-01-04T19:41:46;9.60;99.90
19330;DHT22;9799;48.214;16.388;2023-01-04T19:45:10;9.50;99.90
19330;DHT22;9799;48.214;16.388;2023-01-04T19:48:32;9.50;99.90
19330;DHT22;9799;48.214;16.388;2023-01-04T19:52:00;9.70;99.90
19330;DHT22;9799;48.214;16.388;2023-01-04T19:55:23;9.90;99.90
19330;DHT22;9799;48.214;16.388;2023-01-04T19:58:48;10.50;99.90
19330;DHT22;9799;48.214;16.388;2023-01-04T20:02:11;10.90;99.90
19330;DHT22;9799;48.214;16.388;2023-01-04T20:05:46;11.20;99.90
19330;DHT22;9799;48.214;16.388;2023-01-04T20:09:10;11.20;99.90
19330;DHT22;9799;48.214;16.388;2023-01-04T20:12:32;11.60;99.90
19330;DHT22;9799;48.214;16.388;2023-01-04T20:15:54;11.70;99.90
19330;DHT22;9799;48.214;16.388;2023-01-04T20:19:17;11.70;99.90
19330;DHT22;9799;48.214;16.388;2023-01-04T20:22:39;11.60;99.90
19330;DHT22;9799;48.214;16.388;2023-01-04T20:26:07;11.60;99.90
19330;DHT22;9799;48.214;16.388;2023-01-04T20:29:30;11.50;99.90
19330;DHT22;9799;48.214;16.388;2023-01-04T20:32:55;11.70;99.90
19330;DHT22;9799;48.214;16.388;2023-01-04T20:36:18;11.70;99.90
19330;DHT22;9799;48.214;16.388;2023-01-04T20:39:40;11.80;99.90
19330;DHT22;9799;48.214;16.388;2023-01-04T20:43:04;11.70;99.90
19330;DHT22;9799;48.214;16.388;2023-01-04T20:46:43;11.70;99.90
19330;DHT22;9799;48.214;16.388;2023-01-04T20:50:06;11.60;99.90
19330;DHT22;9799;48.214;16.388;2023-01-04T20:53:32;11.70;99.90
19330;DHT22;9799;48.214;16.388;2023-01-04T20:56:55;11.90;99.90
19330;DHT22;9799;48.214;16.388;2023-01-04T21:00:18;11.90;99.90
19330;DHT22;9799;48.214;16.388;2023-01-04T21:03:40;11.80;99.90
19330;DHT22;9799;48.214;16.388;2023-01-04T21:07:02;11.80;99.90
19330;DHT22;9799;48.214;16.388;2023-01-04T21:10:24;11.80;99.90
19330;DHT22;9799;48.214;16.388;2023-01-04T21:13:47;11.80;99.90
19330;DHT22;9799;48.214;16.388;2023-01-04T21:17:10;11.70;99.90
19330;DHT22;9799;48.214;16.388;2023-01-04T21:20:32;11.70;99.90
19330;DHT22;9799;48.214;16.388;2023-01-04T21:23:54;11.80;99.90
19330;DHT22;9799;48.214;16.388;2023-01-04T21:27:16;11.70;99.90
19330;DHT22;9799;48.214;16.388;2023-01-04T21:30:38;11.70;99.90
19330;DHT22;9799;48.214;16.388;2023-01-04T21:34:02;11.80;99.90
19330;DHT22;9799;48.214;16.388;2023-01-04T21:37:23;12.00;99.90
19330;DHT22;9799;48.214;16.388;2023-01-04T21:40:45;12.00;99.90
19330;DHT22;9799;48.214;16.388;2023-01-04T21:44:07;11.90;99.90
19330;DHT22;9799;48.214;16.388;2023-01-04T21:47:29;12.00;99.90
19330;DHT22;9799;48.214;16.388;2023-01-04T21:50:52;12.10;99.90
19330;DHT22;9799;48.214;16.388;2023-01-04T21:54:15;12.20;99.90
19330;DHT22;9799;48.214;16.388;2023-01-04T21:57:36;12.30;99.90